Time;durP1;ratioP1;P1;durP2;ratioP2;P2;SDS_P1;SDS_P2;PMS_P1;PMS_P2;Temp;Humidity;BMP_temperature;BMP_pressure;BME280_temperature;BME280_humidity;BME280_pressure;Samples;Min_cycle;Max_cycle;Signal;HPM_P1;HPM_P2
2022/06/02 00:00:56;;;;;;;3.30;2.95;;;;;;;11.61;90.83;98364.59;2563955;28;20053;-77
2022/06/02 00:02:39;;;;;;;3.33;3.00;;;;;;;11.58;91.28;98369.91;2574782;28;20058;-76
2022/06/02 00:04:06;;;;;;;3.30;3.00;;;;;;;11.47;91.62;98372.91;2575734;28;20050;-77
2022/06/02 00:05:33;;;;;;;3.47;3.17;;;;;;;11.49;91.67;98378.09;2575821;28;20054;-76
2022/06/02 00:07:03;;;;;;;5.82;3.83;;;;;;;11.63;91.93;98380.25;2575214;28;20145;-77
2022/06/02 00:08:44;;;;;;;3.60;3.30;;;;;;;11.67;91.13;98372.25;2576094;28;20050;-79
2022/06/02 00:10:10;;;;;;;6.05;3.45;;;;;;;11.66;91.49;98370.53;2575890;28;20519;-77
2022/06/02 00:11:43;;;;;;;4.65;3.63;;;;;;;11.64;90.36;98374.97;2575713;28;20069;-78
2022/06/02 00:13:27;;;;;;;5.55;3.22;;;;;;;11.61;91.14;98382.06;2575961;28;20050;-78
2022/06/02 00:15:19;;;;;;;3.35;3.05;;;;;;;11.59;90.34;98385.59;2575674;28;20042;-77
2022/06/02 00:16:49;;;;;;;6.13;3.43;;;;;;;11.54;91.04;98386.66;2575891;28;20054;-77
2022/06/02 00:18:31;;;;;;;3.92;3.20;;;;;;;11.39;91.45;98383.63;2575622;28;20592;-77
2022/06/02 00:19:54;;;;;;;3.42;3.10;;;;;;;11.36;91.50;98383.75;2571791;28;20932;-77
2022/06/02 00:21:38;;;;;;;3.70;3.28;;;;;;;11.28;92.01;98384.00;2575647;28;20481;-77
2022/06/02 00:23:27;;;;;;;5.85;3.28;;;;;;;11.25;92.22;98376.22;2575678;28;20089;-78
2022/06/02 00:24:51;;;;;;;3.53;3.22;;;;;;;11.15;93.06;98378.25;2575421;28;20092;-76
2022/06/02 00:26:19;;;;;;;3.53;3.00;;;;;;;11.16;92.67;98381.75;2575536;28;20608;-77
2022/06/02 00:27:54;;;;;;;3.50;3.20;;;;;;;10.99;93.04;98385.75;2575581;28;20142;-83
2022/06/02 00:29:30;;;;;;;5.05;3.28;;;;;;;10.83;93.89;98387.97;2575609;28;20065;-76
2022/06/02 00:30:55;;;;;;;3.88;3.30;;;;;;;10.79;93.76;98388.97;2575734;28;20086;-78
2022/06/02 00:32:22;;;;;;;3.47;3.17;;;;;;;10.79;93.86;98395.97;2575933;28;20485;-78
2022/06/02 00:33:55;;;;;;;4.75;3.90;;;;;;;10.71;94.68;98396.19;2564722;28;20051;-77
2022/06/02 00:35:46;;;;;;;4.50;3.60;;;;;;;10.70;96.40;98397.97;2571615;28;20058;-78
2022/06/02 00:37:20;;;;;;;4.88;3.47;;;;;;;10.76;96.01;98399.56;2575585;28;20046;-77
2022/06/02 00:38:38;;;;;;;3.50;3.20;;;;;;;10.78;95.84;98399.50;2575648;28;20054;-79
2022/06/02 00:39:55;;;;;;;4.05;3.30;;;;;;;10.74;96.06;98403.94;2575365;28;20050;-79
2022/06/02 00:41:14;;;;;;;3.50;3.10;;;;;;;10.78;96.14;98400.38;2575293;28;20069;-77
2022/06/02 00:42:39;;;;;;;4.47;3.75;;;;;;;10.80;95.62;98403.78;2575957;28;20452;-77
2022/06/02 00:44:14;;;;;;;4.95;3.80;;;;;;;10.85;94.68;98409.72;2575889;28;20050;-77
2022/06/02 00:45:31;;;;;;;4.18;3.70;;;;;;;10.83;95.13;98408.94;2575592;28;20100;-77
2022/06/02 00:46:53;;;;;;;4.60;3.22;;;;;;;10.80;94.71;98411.63;2575449;28;20516;-77
2022/06/02 00:48:22;;;;;;;3.30;3.00;;;;;;;10.77;94.66;98403.88;2575995;28;20512;-77
2022/06/02 00:49:53;;;;;;;3.55;3.25;;;;;;;10.77;95.08;98411.75;2575769;28;20141;-77
2022/06/02 00:51:13;;;;;;;3.78;3.40;;;;;;;10.75;95.79;98413.53;2575706;28;20046;-77
2022/06/02 00:52:54;;;;;;;3.88;3.30;;;;;;;10.74;95.64;98409.19;2575565;28;20862;-78
2022/06/02 00:58:09;;;;;;;4.50;3.47;;;;;;;10.81;95.90;98408.13;2575679;28;20054;-77
2022/06/02 00:59:43;;;;;;;5.53;3.50;;;;;;;10.92;95.52;98409.56;2575621;28;20050;-77
2022/06/02 01:01:27;;;;;;;3.83;3.33;;;;;;;10.92;95.68;98410.41;2575528;28;20058;-77
2022/06/02 01:02:45;;;;;;;7.13;3.47;;;;;;;10.92;95.43;98410.41;2575440;28;20054;-77
2022/06/02 01:04:04;;;;;;;4.80;3.55;;;;;;;10.87;95.75;98412.31;2575582;28;20049;-78
2022/06/02 01:05:47;;;;;;;4.50;3.50;;;;;;;10.86;95.92;98413.22;2575629;28;20425;-77
2022/06/02 01:07:24;;;;;;;5.78;3.45;;;;;;;10.90;96.26;98420.09;2575456;28;20137;-77
2022/06/02 01:09:00;;;;;;;4.45;3.53;;;;;;;11.15;94.73;98417.56;2575331;28;20054;-77
2022/06/02 01:10:44;;;;;;;4.43;3.80;;;;;;;11.26;94.86;98425.13;2575258;28;20054;-77
2022/06/02 01:12:11;;;;;;;6.68;3.88;;;;;;;11.24;95.02;98420.81;2575539;28;20141;-77
2022/06/02 01:13:48;;;;;;;4.72;3.13;;;;;;;11.21;95.41;98416.53;2575452;28;20187;-77
2022/06/02 01:15:41;;;;;;;5.20;3.70;;;;;;;11.11;95.80;98434.28;2575697;28;20105;-77
2022/06/02 01:17:21;;;;;;;6.50;4.30;;;;;;;11.07;95.94;98443.16;2575575;28;20137;-78
2022/06/02 01:18:46;;;;;;;4.68;3.55;;;;;;;11.01;96.63;98452.06;2575535;28;20478;-77
2022/06/02 01:20:05;;;;;;;4.57;3.35;;;;;;;10.92;97.11;98451.47;2575625;28;20046;-76
2022/06/02 01:21:38;;;;;;;5.88;3.97;;;;;;;10.81;98.10;98451.78;2575675;28;20449;-76
2022/06/02 01:23:15;;;;;;;6.25;3.63;;;;;;;10.83;98.07;98445.59;2575642;28;20101;-77
2022/06/02 01:25:22;;;;;;;4.00;3.45;;;;;;;10.86;97.77;98449.91;2575200;28;20054;-76
2022/06/02 01:27:02;;;;;;;7.03;3.58;;;;;;;10.83;97.32;98444.75;2543761;29;20066;-77
2022/06/02 01:28:51;;;;;;;5.22;3.60;;;;;;;10.82;97.45;98451.75;2575552;28;20050;-76
2022/06/02 01:30:21;;;;;;;5.55;3.90;;;;;;;10.77;98.16;98461.50;2574730;28;20318;-78
2022/06/02 01:31:53;;;;;;;6.60;4.07;;;;;;;10.69;98.50;98455.59;2575231;28;20398;-77
2022/06/02 01:33:33;;;;;;;3.95;3.55;;;;;;;10.83;98.21;98458.69;2575450;28;20073;-76
2022/06/02 01:34:57;;;;;;;5.25;3.67;;;;;;;10.88;97.61;98461.19;2575177;28;20058;-77
2022/06/02 01:36:37;;;;;;;5.20;3.90;;;;;;;10.78;98.64;98464.97;2575349;28;20065;-77
2022/06/02 01:38:17;;;;;;;5.80;3.70;;;;;;;10.70;99.22;98466.03;2575513;28;20594;-76
2022/06/02 01:40:20;;;;;;;4.57;3.72;;;;;;;10.55;100.00;98463.88;2577301;28;20054;-78
2022/06/02 01:41:58;;;;;;;6.63;3.55;;;;;;;10.47;100.00;98465.81;2545761;29;20486;-77
2022/06/02 01:43:20;;;;;;;4.53;3.63;;;;;;;10.41;100.00;98469.47;2545837;29;20052;-76
2022/06/02 01:45:26;;;;;;;5.47;3.95;;;;;;;10.38;100.00;98472.97;2545715;29;20067;-77
2022/06/02 01:46:48;;;;;;;5.45;4.00;;;;;;;10.39;100.00;98474.69;2530915;29;20048;-77
2022/06/02 01:48:15;;;;;;;4.63;4.15;;;;;;;10.33;100.00;98482.72;2566669;28;20062;-78
2022/06/02 01:50:01;;;;;;;4.80;4.20;;;;;;;10.32;100.00;98474.00;2577287;28;20054;-76
2022/06/02 01:51:49;;;;;;;6.50;4.30;;;;;;;10.30;100.00;98486.25;2576734;28;20081;-77
2022/06/02 01:53:17;;;;;;;4.30;3.42;;;;;;;10.30;100.00;98485.41;2577031;28;20046;-76
2022/06/02 01:54:49;;;;;;;5.60;3.85;;;;;;;10.29;100.00;98487.16;2576847;28;20062;-79
2022/06/02 01:56:16;;;;;;;6.32;3.53;;;;;;;10.40;100.00;98488.66;2576948;28;20216;-77
2022/06/02 01:58:03;;;;;;;5.03;3.65;;;;;;;10.43;100.00;98496.44;2577084;28;20057;-77
2022/06/02 01:59:32;;;;;;;4.60;3.72;;;;;;;10.42;100.00;98500.84;2576927;28;20057;-77
2022/06/02 02:00:55;;;;;;;6.53;3.67;;;;;;;10.41;100.00;98508.72;2576989;28;20053;-77
2022/06/02 02:02:27;;;;;;;4.10;3.58;;;;;;;10.38;100.00;98514.00;2577092;28;20050;-77
2022/06/02 02:03:57;;;;;;;4.38;3.80;;;;;;;10.37;100.00;98517.53;2577178;28;20941;-77
2022/06/02 02:05:31;;;;;;;4.88;3.78;;;;;;;10.41;100.00;98508.72;2576951;28;20729;-76
2022/06/02 02:07:01;;;;;;;5.00;3.58;;;;;;;10.25;100.00;98511.69;2576653;28;20570;-76
2022/06/02 02:08:46;;;;;;;4.40;3.53;;;;;;;10.37;100.00;98517.53;2576915;28;20140;-77
2022/06/02 02:10:08;;;;;;;4.70;3.63;;;;;;;10.30;100.00;98515.03;2558247;28;20117;-77
2022/06/02 02:11:42;;;;;;;4.68;3.55;;;;;;;10.25;100.00;98514.31;2577148;28;20173;-77
2022/06/02 02:13:10;;;;;;;4.95;3.65;;;;;;;10.28;100.00;98524.69;2576960;28;20091;-76
2022/06/02 02:15:17;;;;;;;3.85;3.35;;;;;;;10.39;99.85;98531.44;2577221;28;20078;-76
2022/06/02 02:16:57;;;;;;;4.22;3.78;;;;;;;10.48;100.00;98530.34;2531120;29;20056;-77
2022/06/02 02:18:41;;;;;;;5.32;4.00;;;;;;;10.30;100.00;98533.38;2576934;28;20081;-77
2022/06/02 02:20:20;;;;;;;6.45;4.32;;;;;;;10.27;100.00;98533.44;2576762;28;20456;-77
2022/06/02 02:22:08;;;;;;;5.72;3.75;;;;;;;10.23;100.00;98537.06;2576906;28;20101;-77
2022/06/02 02:23:52;;;;;;;8.27;4.18;;;;;;;10.15;100.00;98532.00;2576948;28;20378;-77
2022/06/02 02:25:54;;;;;;;4.78;4.10;;;;;;;10.09;100.00;98536.53;2570860;28;20046;-79
2022/06/02 02:27:20;;;;;;;8.00;3.78;;;;;;;9.95;100.00;98537.72;2576802;28;20054;-79
2022/06/02 02:29:04;;;;;;;5.20;4.07;;;;;;;9.85;100.00;98537.09;2576670;28;20053;-76
2022/06/02 02:30:23;;;;;;;4.57;4.00;;;;;;;9.85;100.00;98536.22;2546281;28;20047;-77
2022/06/02 02:31:55;;;;;;;4.82;4.15;;;;;;;9.88;100.00;98543.97;2576413;28;20054;-77
2022/06/02 02:33:31;;;;;;;4.57;3.67;;;;;;;9.92;100.00;98543.03;2576637;28;20120;-77
2022/06/02 02:34:56;;;;;;;4.88;3.95;;;;;;;9.92;100.00;98543.03;2576688;28;20333;-77
2022/06/02 02:36:27;;;;;;;4.82;3.75;;;;;;;9.87;100.00;98547.50;2576671;28;20552;-78
2022/06/02 02:37:48;;;;;;;4.57;3.75;;;;;;;9.99;100.00;98546.38;2576689;28;20099;-76
2022/06/02 02:39:18;;;;;;;5.90;4.45;;;;;;;10.00;100.00;98538.47;2576652;28;20508;-77
2022/06/02 02:40:51;;;;;;;6.43;4.38;;;;;;;10.03;100.00;98545.38;2576540;28;20078;-77
2022/06/02 02:42:32;;;;;;;4.43;3.80;;;;;;;10.17;100.00;98547.66;2565907;28;20047;-76
2022/06/02 02:44:36;;;;;;;5.13;3.88;;;;;;;10.31;100.00;98545.53;2573832;28;20534;-77
2022/06/02 02:46:10;;;;;;;4.93;3.92;;;;;;;10.32;100.00;98549.88;2571247;28;20497;-76
2022/06/02 02:47:34;;;;;;;5.10;3.85;;;;;;;10.36;100.00;98545.44;2576480;28;20057;-76
2022/06/02 02:48:50;;;;;;;5.57;4.38;;;;;;;10.38;100.00;98550.66;2576756;28;20054;-76
2022/06/02 02:50:18;;;;;;;5.75;3.83;;;;;;;10.54;100.00;98552.00;2575391;28;20105;-76
2022/06/02 02:51:49;;;;;;;7.75;4.28;;;;;;;10.63;100.00;98552.66;2576430;28;20556;-76
2022/06/02 02:53:20;;;;;;;6.85;4.35;;;;;;;10.56;100.00;98555.44;2576599;28;20077;-76
2022/06/02 02:55:01;;;;;;;4.95;3.88;;;;;;;10.54;100.00;98561.59;2576207;28;20050;-78
2022/06/02 02:56:38;;;;;;;4.80;3.92;;;;;;;10.62;99.68;98556.19;2576446;28;20046;-77
2022/06/02 02:58:03;;;;;;;4.97;3.90;;;;;;;10.69;99.70;98555.09;2576575;28;20724;-77
2022/06/02 02:59:30;;;;;;;5.50;3.90;;;;;;;10.71;99.13;98553.31;2576581;28;20042;-77
2022/06/02 03:01:04;;;;;;;4.13;3.63;;;;;;;10.76;99.21;98561.03;2576408;28;20359;-76
2022/06/02 03:03:02;;;;;;;4.70;4.20;;;;;;;10.76;99.10;98548.81;2576281;28;20050;-77
2022/06/02 03:04:34;;;;;;;5.95;4.10;;;;;;;10.81;98.99;98551.28;2576233;28;20050;-76
2022/06/02 03:06:23;;;;;;;6.57;4.05;;;;;;;10.79;98.26;98555.72;2576313;28;20054;-76
2022/06/02 03:07:39;;;;;;;5.20;3.95;;;;;;;10.82;97.26;98555.63;2576166;28;20058;-77
2022/06/02 03:09:05;;;;;;;5.30;4.30;;;;;;;10.82;97.84;98556.50;2576484;28;20050;-77
2022/06/02 03:10:36;;;;;;;4.50;3.65;;;;;;;10.86;97.59;98554.66;2576393;28;20081;-78
2022/06/02 03:12:06;;;;;;;4.60;3.75;;;;;;;10.84;97.44;98554.69;2576616;28;20050;-78
2022/06/02 03:13:25;;;;;;;7.40;3.80;;;;;;;10.91;97.17;98554.53;2576502;28;20104;-77
2022/06/02 03:15:02;;;;;;;6.70;4.07;;;;;;;10.93;97.20;98555.34;2575956;28;20100;-77
2022/06/02 03:16:20;;;;;;;6.15;3.85;;;;;;;10.93;97.38;98560.59;2576115;28;20046;-77
2022/06/02 03:17:48;;;;;;;5.30;3.95;;;;;;;11.01;96.91;98555.97;2576429;28;20137;-77
2022/06/02 03:19:32;;;;;;;5.68;3.72;;;;;;;10.73;98.11;98561.97;2576538;28;20473;-77
2022/06/02 03:20:48;;;;;;;8.40;3.90;;;;;;;10.82;97.89;98560.84;2572157;28;20058;-76
2022/06/02 03:22:40;;;;;;;3.95;3.55;;;;;;;10.86;97.72;98565.13;2576305;28;20088;-77
2022/06/02 03:24:11;;;;;;;8.15;4.20;;;;;;;10.95;97.67;98577.13;2575879;28;20058;-78
2022/06/02 03:25:35;;;;;;;6.07;4.00;;;;;;;11.06;96.55;98585.56;2576384;28;20081;-77
2022/06/02 03:27:23;;;;;;;5.32;4.00;;;;;;;10.83;97.80;98583.56;2576107;28;20057;-83
2022/06/02 03:28:58;;;;;;;5.03;3.78;;;;;;;10.91;97.66;98596.44;2576186;28;20054;-76
2022/06/02 03:30:23;;;;;;;4.75;3.85;;;;;;;11.05;96.83;98577.72;2576219;28;20046;-77
2022/06/02 03:31:57;;;;;;;5.07;4.05;;;;;;;11.03;96.65;98590.84;2576237;28;20046;-79
2022/06/02 03:33:22;;;;;;;4.43;3.45;;;;;;;11.01;96.12;98585.66;2576388;28;20469;-80
2022/06/02 03:35:04;;;;;;;4.55;3.97;;;;;;;10.91;97.24;98586.81;2576023;28;20062;-77
2022/06/02 03:36:48;;;;;;;5.65;4.15;;;;;;;10.83;97.66;98584.41;2575972;28;20058;-77
2022/06/02 03:38:50;;;;;;;5.38;3.70;;;;;;;10.80;97.50;98583.63;2576148;28;20046;-77
2022/06/02 03:40:16;;;;;;;4.38;3.75;;;;;;;10.82;96.63;98577.44;2570619;28;20525;-79
2022/06/02 03:41:58;;;;;;;5.28;4.20;;;;;;;10.72;97.21;98581.22;2575974;28;20133;-77
2022/06/02 03:43:17;;;;;;;4.93;3.88;;;;;;;10.64;97.27;98580.56;2535584;28;20139;-76
2022/06/02 03:44:45;;;;;;;4.75;3.95;;;;;;;10.67;96.03;98575.25;2574786;28;20101;-76
2022/06/02 03:46:23;;;;;;;5.60;4.13;;;;;;;10.67;96.87;98563.00;2575021;28;20078;-76
2022/06/02 03:48:04;;;;;;;5.03;3.90;;;;;;;10.66;96.96;98576.16;2575764;28;20050;-77
2022/06/02 03:49:19;;;;;;;5.10;3.72;;;;;;;10.59;97.09;98578.91;2575199;28;20057;-77
2022/06/02 03:51:02;;;;;;;4.20;3.80;;;;;;;10.54;97.03;98579.91;2575851;28;20050;-78
2022/06/02 03:52:36;;;;;;;4.72;3.50;;;;;;;10.51;96.76;98573.03;2575540;28;20081;-78
2022/06/02 03:54:06;;;;;;;4.68;3.90;;;;;;;10.54;97.42;98583.41;2575421;28;20054;-77
2022/06/02 03:55:27;;;;;;;4.45;3.90;;;;;;;10.57;95.79;98583.31;2576045;28;20577;-77
2022/06/02 03:56:58;;;;;;;7.67;3.93;;;;;;;10.52;96.55;98589.56;2575626;28;20092;-78
2022/06/02 03:58:43;;;;;;;4.55;3.88;;;;;;;10.49;96.02;98589.66;2576092;28;20871;-78
2022/06/02 04:00:35;;;;;;;5.63;4.30;;;;;;;10.60;95.39;98595.50;2576067;28;20050;-79
2022/06/02 04:02:05;;;;;;;5.78;3.45;;;;;;;10.64;94.65;98596.28;2575337;28;20058;-80
2022/06/02 04:03:37;;;;;;;4.00;3.58;;;;;;;10.67;94.30;98593.56;2575720;28;20050;-78
2022/06/02 04:04:58;;;;;;;4.35;3.70;;;;;;;10.63;94.43;98598.03;2575974;28;20050;-79
2022/06/02 04:06:27;;;;;;;4.68;3.90;;;;;;;10.67;94.50;98599.66;2575734;28;20058;-77
2022/06/02 04:08:01;;;;;;;4.30;3.70;;;;;;;10.65;94.75;98595.38;2575428;28;20398;-79
2022/06/02 04:09:31;;;;;;;5.88;4.25;;;;;;;10.62;95.08;98595.47;2575590;28;20116;-77
2022/06/02 04:11:12;;;;;;;5.95;3.85;;;;;;;10.58;95.13;98602.53;2575857;28;20050;-76
2022/06/02 04:14:29;;;;;;;4.10;3.42;;;;;;;10.57;94.95;98609.50;2575768;28;20053;-76
2022/06/02 04:15:49;;;;;;;4.72;3.45;;;;;;;10.62;94.74;98611.16;2575621;28;20104;-76
2022/06/02 04:17:26;;;;;;;5.50;3.95;;;;;;;10.58;95.05;98619.06;2575443;28;20046;-76
2022/06/02 04:21:25;;;;;;;6.70;3.70;;;;;;;10.46;95.89;98624.63;2575568;28;20062;-76
2022/06/02 04:22:56;;;;;;;5.55;3.63;;;;;;;10.34;96.04;98627.50;2575352;28;20767;-76
2022/06/02 04:24:26;;;;;;;5.45;3.63;;;;;;;10.28;96.27;98628.53;2568780;28;20362;-75
2022/06/02 04:26:00;;;;;;;5.55;3.72;;;;;;;10.30;95.53;98632.81;2574140;28;20050;-75
2022/06/02 04:27:26;;;;;;;4.90;3.90;;;;;;;10.36;95.41;98637.03;2575438;28;20737;-77
2022/06/02 04:29:02;;;;;;;4.07;3.67;;;;;;;10.46;93.97;98635.09;2575398;28;20490;-77
2022/06/02 04:30:34;;;;;;;4.05;3.63;;;;;;;10.55;92.66;98637.50;2575660;28;20069;-77
2022/06/02 04:31:59;;;;;;;5.17;3.67;;;;;;;10.67;93.11;98644.16;2575163;28;20409;-77
2022/06/02 04:33:41;;;;;;;6.80;3.10;;;;;;;10.70;92.23;98640.63;2575425;28;20050;-77
2022/06/02 04:35:18;;;;;;;3.63;3.20;;;;;;;10.78;91.71;98641.28;2575487;28;20065;-77
2022/06/02 04:37:00;;;;;;;3.55;3.08;;;;;;;10.92;89.43;98640.09;2575498;28;20051;-77
2022/06/02 04:38:16;;;;;;;4.50;3.08;;;;;;;11.00;88.71;98644.22;2575408;28;20410;-77
2022/06/02 04:39:56;;;;;;;5.25;3.30;;;;;;;11.10;87.29;98639.59;2575659;28;20045;-77
2022/06/02 04:41:32;;;;;;;4.43;3.20;;;;;;;11.23;87.49;98644.50;2575551;28;20656;-79
2022/06/02 04:43:07;;;;;;;3.38;3.03;;;;;;;11.26;88.44;98639.16;2575405;28;20121;-78
2022/06/02 04:44:43;;;;;;;4.15;3.15;;;;;;;11.26;87.75;98647.03;2575863;28;20510;-75
2022/06/02 04:46:25;;;;;;;4.47;3.05;;;;;;;11.26;88.59;98632.16;2575714;28;20042;-81
2022/06/02 04:48:00;;;;;;;3.20;2.90;;;;;;;11.28;88.91;98640.84;2575339;28;20058;-78
2022/06/02 04:49:43;;;;;;;3.50;3.20;;;;;;;11.30;89.19;98646.91;2574834;28;20050;-75
2022/06/02 04:51:23;;;;;;;;;;;;;;;11.23;89.04;98636.63;2576185;28;20422;-76
2022/06/02 04:52:54;;;;;;;3.15;2.85;;;;;;;11.28;89.52;98647.84;2575178;28;20418;-75
2022/06/02 04:54:28;;;;;;;5.05;3.00;;;;;;;11.38;89.17;98644.06;2575755;28;20054;-75
2022/06/02 04:56:22;;;;;;;3.97;3.28;;;;;;;11.14;90.48;98646.44;2575405;28;20133;-76
2022/06/02 04:57:57;;;;;;;6.03;3.75;;;;;;;11.24;89.26;98648.81;2575112;28;20069;-76
2022/06/02 04:59:33;;;;;;;3.50;3.20;;;;;;;11.34;90.07;98647.69;2575292;28;20050;-76
2022/06/02 05:01:18;;;;;;;3.90;3.33;;;;;;;11.29;90.42;98652.16;2575163;28;20173;-76
2022/06/02 05:03:12;;;;;;;5.25;3.45;;;;;;;11.23;91.52;98649.72;2568155;28;20063;-77
2022/06/02 05:04:53;;;;;;;4.68;3.55;;;;;;;11.28;91.48;98653.94;2575098;28;20382;-76
2022/06/02 05:06:29;;;;;;;4.45;3.53;;;;;;;11.23;91.21;98660.22;2574849;28;20088;-77
2022/06/02 05:08:01;;;;;;;5.15;3.50;;;;;;;11.34;89.68;98659.91;2575027;28;20050;-75
2022/06/02 05:09:43;;;;;;;6.30;3.60;;;;;;;11.28;90.06;98656.56;2575077;28;20054;-77
2022/06/02 05:11:33;;;;;;;4.85;3.40;;;;;;;11.27;89.81;98656.59;2571043;28;20101;-77
2022/06/02 05:13:06;;;;;;;3.88;3.47;;;;;;;11.24;88.78;98656.69;2575086;28;20042;-79
2022/06/02 05:14:39;;;;;;;4.97;3.78;;;;;;;11.28;88.48;98656.56;2576605;28;20053;-76
2022/06/02 05:15:57;;;;;;;4.53;3.55;;;;;;;11.27;88.21;98659.22;2576981;28;20416;-77
2022/06/02 05:17:50;;;;;;;4.35;3.47;;;;;;;11.40;87.71;98649.28;2576858;28;20057;-80
2022/06/02 05:19:27;;;;;;;3.95;3.55;;;;;;;11.40;87.86;98657.13;2576666;28;20121;-81
2022/06/02 05:21:20;;;;;;;5.28;3.30;;;;;;;11.59;86.30;98654.81;2576569;28;20111;-81
2022/06/02 05:22:41;;;;;;;;;;;;;;;11.52;86.34;98650.69;2577819;28;20058;-82
2022/06/02 05:24:35;;;;;;;3.50;3.20;;;;;;;11.53;86.13;98655.03;2577222;28;19983;-82
2022/06/02 05:26:18;;;;;;;6.55;3.53;;;;;;;11.63;85.98;98659.09;2577478;28;20054;-81
2022/06/02 05:27:33;;;;;;;3.35;3.05;;;;;;;11.77;85.84;98666.56;2577295;28;20076;-82
2022/06/02 05:29:28;;;;;;;5.68;3.70;;;;;;;11.83;86.03;98661.16;2577177;28;20057;-86
2022/06/02 05:31:02;;;;;;;5.10;3.40;;;;;;;11.94;83.96;98660.81;2577011;28;20619;-83
2022/06/02 05:32:46;;;;;;;4.18;3.13;;;;;;;11.97;83.03;98663.34;2577400;28;20829;-83
2022/06/02 05:34:23;;;;;;;3.58;3.10;;;;;;;11.93;82.86;98666.97;2573324;28;20592;-81
2022/06/02 05:36:16;;;;;;;5.25;3.20;;;;;;;12.04;82.64;98658.81;2577233;28;20042;-82
2022/06/02 05:38:00;;;;;;;5.80;3.10;;;;;;;12.15;82.24;98663.72;2577180;28;20100;-82
2022/06/02 05:39:27;;;;;;;4.63;3.78;;;;;;;12.24;82.08;98663.44;2577268;28;20523;-82
2022/06/02 05:41:08;;;;;;;3.63;3.33;;;;;;;12.29;80.83;98666.78;2577296;28;20137;-83
2022/06/02 05:42:43;;;;;;;4.95;3.50;;;;;;;12.39;81.76;98664.72;2527143;28;20057;-82
2022/06/02 05:44:16;;;;;;;3.40;3.08;;;;;;;12.56;80.79;98668.56;2573052;28;20053;-83
2022/06/02 05:45:46;;;;;;;3.67;3.20;;;;;;;12.65;81.13;98670.91;2577159;28;20054;-82
2022/06/02 05:47:31;;;;;;;4.20;3.05;;;;;;;12.69;80.43;98671.66;2577249;28;20054;-83
2022/06/02 05:49:25;;;;;;;3.00;2.72;;;;;;;12.75;80.58;98671.47;2577229;28;20078;-86
2022/06/02 05:50:56;;;;;;;3.35;2.80;;;;;;;12.65;79.99;98670.03;2564583;28;20081;-83
2022/06/02 05:52:23;;;;;;;3.63;2.92;;;;;;;12.77;80.20;98668.75;2575708;28;20054;-82
2022/06/02 05:53:57;;;;;;;7.63;3.35;;;;;;;12.80;79.07;98663.44;2577160;28;20054;-82
2022/06/02 05:55:30;;;;;;;3.10;2.80;;;;;;;12.84;79.64;98665.88;2577270;28;20524;-83
2022/06/02 05:57:08;;;;;;;4.55;3.25;;;;;;;12.89;80.14;98665.72;2576598;28;20054;-82
2022/06/02 05:58:42;;;;;;;3.20;2.90;;;;;;;13.07;78.69;98666.03;2577073;28;20057;-81
2022/06/02 06:00:16;;;;;;;4.53;3.25;;;;;;;13.15;79.73;98663.97;2576941;28;20054;-83
2022/06/02 06:01:47;;;;;;;3.88;3.22;;;;;;;13.13;79.58;98671.06;2577022;28;20104;-82
2022/06/02 06:03:18;;;;;;;5.50;3.60;;;;;;;12.96;79.77;98663.75;2576885;28;20054;-82
2022/06/02 06:04:46;;;;;;;4.47;3.33;;;;;;;12.94;79.65;98666.44;2577072;28;20390;-82
2022/06/02 06:06:07;;;;;;;5.00;3.80;;;;;;;13.12;78.94;98667.56;2571143;28;20625;-83
2022/06/02 06:07:34;;;;;;;3.50;3.20;;;;;;;13.25;79.37;98667.13;2569145;28;20132;-82
2022/06/02 06:09:33;;;;;;;4.13;3.13;;;;;;;13.44;78.89;98674.41;2566719;28;20051;-84
2022/06/02 06:11:15;;;;;;;3.22;2.92;;;;;;;13.58;78.01;98666.88;2566989;28;20398;-86
2022/06/02 06:13:05;;;;;;;3.42;3.08;;;;;;;13.58;77.35;98671.28;2564739;28;20054;-85
2022/06/02 06:14:34;;;;;;;3.33;3.00;;;;;;;13.56;77.06;98668.72;2566903;28;20043;-82
2022/06/02 06:16:01;;;;;;;3.28;2.90;;;;;;;13.62;75.71;98664.97;2567093;28;20368;-82
2022/06/02 06:17:40;;;;;;;4.22;3.20;;;;;;;13.65;76.05;98678.03;2566792;28;20134;-82
2022/06/02 06:19:26;;;;;;;4.97;3.10;;;;;;;13.79;75.42;98669.63;2566731;28;20070;-82
2022/06/02 06:20:59;;;;;;;3.85;3.25;;;;;;;13.76;76.01;98675.00;2566703;28;20047;-82
2022/06/02 06:22:51;;;;;;;3.67;3.03;;;;;;;13.78;76.33;98681.06;2566777;28;20090;-82
2022/06/02 06:24:36;;;;;;;3.25;2.83;;;;;;;14.08;75.30;98675.53;2566520;28;20059;-81
2022/06/02 06:26:10;;;;;;;2.85;2.65;;;;;;;14.04;73.48;98679.22;2566770;28;20063;-81
2022/06/02 06:27:38;;;;;;;3.10;2.70;;;;;;;14.02;74.61;98679.28;2566589;28;20057;-81
2022/06/02 06:29:30;;;;;;;3.47;3.10;;;;;;;14.03;74.56;98680.13;2566420;28;20051;-81
2022/06/02 06:30:51;;;;;;;3.00;2.67;;;;;;;14.09;73.52;98687.78;2566299;28;20051;-81
2022/06/02 06:32:19;;;;;;;3.67;2.87;;;;;;;14.24;72.70;98681.09;2566815;28;20630;-81
2022/06/02 06:33:53;;;;;;;4.00;2.70;;;;;;;14.44;73.52;98687.31;2566907;28;20593;-81
2022/06/02 06:35:28;;;;;;;3.30;2.78;;;;;;;14.56;72.95;98689.47;2566791;28;20057;-82
2022/06/02 06:37:15;;;;;;;2.67;2.47;;;;;;;14.62;71.80;98694.50;2566620;28;20057;-81
2022/06/02 06:38:50;;;;;;;2.72;2.53;;;;;;;14.80;70.72;98690.28;2541281;28;20048;-82
2022/06/02 06:40:25;;;;;;;2.70;2.50;;;;;;;14.86;69.52;98688.31;2566643;28;20097;-81
2022/06/02 06:42:11;;;;;;;3.35;2.33;;;;;;;14.78;69.77;98686.84;2566450;28;20055;-81
2022/06/02 06:43:41;;;;;;;3.22;2.28;;;;;;;14.94;68.76;98692.34;2566473;28;20337;-82
2022/06/02 06:45:06;;;;;;;3.30;2.08;;;;;;;14.92;67.88;98690.69;2566548;28;20415;-83
2022/06/02 06:46:41;;;;;;;2.20;2.00;;;;;;;15.05;68.22;98693.69;2566496;28;20398;-81
2022/06/02 06:48:06;;;;;;;1.85;1.75;;;;;;;14.96;65.33;98695.78;2566465;28;20051;-80
2022/06/02 06:49:42;;;;;;;2.10;1.83;;;;;;;14.74;62.88;98694.97;2566612;28;20046;-81
2022/06/02 06:51:03;;;;;;;2.00;1.70;;;;;;;14.83;62.77;98695.44;2566513;28;20059;-81
2022/06/02 06:52:41;;;;;;;2.13;1.70;;;;;;;14.88;61.33;98703.16;2566522;28;20764;-82
2022/06/02 06:54:20;;;;;;;2.05;1.80;;;;;;;14.88;62.46;98708.44;2566475;28;20338;-80
2022/06/02 06:56:09;;;;;;;2.83;2.33;;;;;;;15.08;62.48;98698.81;2565916;28;20565;-81
2022/06/02 06:57:38;;;;;;;1.83;1.67;;;;;;;15.17;62.15;98697.56;2566375;28;20095;-81
2022/06/02 06:59:20;;;;;;;2.35;1.65;;;;;;;15.28;60.75;98705.00;2566275;28;20050;-81
2022/06/02 07:00:43;;;;;;;1.98;1.67;;;;;;;15.53;60.20;98704.81;2566410;28;20042;-81
2022/06/02 07:02:30;;;;;;;2.97;1.83;;;;;;;15.73;59.12;98695.13;2566498;28;20133;-81
2022/06/02 07:04:08;;;;;;;2.03;1.83;;;;;;;15.90;59.50;98702.34;2566302;28;20055;-81
2022/06/02 07:05:42;;;;;;;2.97;1.70;;;;;;;15.92;59.64;98695.19;2566331;28;20490;-81
2022/06/02 07:07:32;;;;;;;1.95;1.75;;;;;;;15.77;58.40;98696.69;2574911;28;20062;-80
2022/06/02 07:08:59;;;;;;;2.70;1.55;;;;;;;15.84;59.46;98703.44;2576567;28;20065;-81
2022/06/02 07:10:22;;;;;;;3.20;1.70;;;;;;;15.82;57.79;98703.50;2576524;28;20046;-80
2022/06/02 07:13:47;;;;;;;2.60;1.77;;;;;;;15.79;57.75;98697.53;2576169;28;20587;-81
2022/06/02 07:15:13;;;;;;;2.58;1.70;;;;;;;15.84;57.87;98703.44;2576273;28;20512;-82
2022/06/02 07:16:41;;;;;;;3.35;1.63;;;;;;;15.78;56.62;98699.28;2576189;28;20046;-80
2022/06/02 07:18:14;;;;;;;1.83;1.70;;;;;;;15.65;56.28;98706.91;2576325;28;20801;-81
2022/06/02 07:19:49;;;;;;;2.00;1.90;;;;;;;15.80;56.85;98699.22;2576087;28;20424;-84
2022/06/02 07:21:39;;;;;;;1.83;1.73;;;;;;;15.90;57.46;98700.53;2576294;28;20065;-86
2022/06/02 07:23:06;;;;;;;1.65;1.55;;;;;;;16.01;56.11;98701.84;2575763;28;20081;-81
2022/06/02 07:24:22;;;;;;;2.45;1.63;;;;;;;16.14;55.81;98697.69;2576296;28;20093;-81
2022/06/02 07:25:51;;;;;;;2.38;1.60;;;;;;;16.22;55.82;98692.91;2576093;28;20065;-81
2022/06/02 07:27:29;;;;;;;3.45;1.60;;;;;;;16.31;55.36;98701.31;2575962;28;20049;-80
2022/06/02 07:28:54;;;;;;;3.70;2.17;;;;;;;16.29;54.56;98698.78;2575823;28;20137;-83
2022/06/02 07:30:33;;;;;;;2.55;1.83;;;;;;;16.56;56.58;98697.50;2576157;28;20042;-80
2022/06/02 07:32:39;;;;;;;2.95;2.05;;;;;;;16.74;53.27;98701.88;2565072;28;20057;-81
2022/06/02 07:34:09;;;;;;;4.72;2.33;;;;;;;16.56;55.06;98694.88;2566621;28;20102;-81
2022/06/02 07:35:42;;;;;;;2.38;1.90;;;;;;;16.66;55.30;98696.97;2575240;28;20078;-81